createdAt,value
2023-11-27T00:03:10.652Z,13.60
2023-11-27T00:07:00.812Z,13.30
2023-11-27T00:10:50.637Z,14.50
2023-11-27T00:14:00.479Z,12.70
2023-11-27T00:17:50.598Z,12.40
2023-11-27T00:21:39.117Z,13.10
2023-11-27T00:25:26.306Z,12.30
2023-11-27T00:29:13.410Z,12.90
2023-11-27T00:33:00.844Z,11.50
2023-11-27T00:36:48.304Z,11.60
2023-11-27T00:40:35.471Z,12.20
2023-11-27T00:44:22.396Z,11.40
2023-11-27T00:48:00.280Z,11.70
2023-11-27T00:50:37.022Z,11.40
2023-11-27T00:55:31.005Z,11.10
2023-11-27T00:57:58.072Z,11.90
2023-11-27T01:00:25.780Z,11.70
2023-11-27T01:02:54.584Z,12.30
2023-11-27T01:05:21.747Z,11.70
2023-11-27T01:07:48.678Z,12.00
2023-11-27T01:10:15.435Z,11.80
2023-11-27T01:12:46.457Z,12.00
2023-11-27T01:15:14.882Z,11.40
2023-11-27T01:17:42.472Z,12.10
2023-11-27T01:20:10.927Z,11.40
2023-11-27T01:22:38.029Z,11.90
2023-11-27T01:25:06.736Z,11.60
2023-11-27T01:27:33.871Z,11.20
2023-11-27T01:30:02.162Z,11.40
2023-11-27T01:32:29.057Z,10.60
2023-11-27T01:34:55.486Z,10.80
2023-11-27T01:37:22.516Z,11.00
2023-11-27T01:39:49.396Z,11.60
2023-11-27T01:42:17.440Z,11.10
2023-11-27T01:44:44.901Z,10.30
2023-11-27T01:47:15.050Z,11.10
2023-11-27T01:49:43.503Z,11.30
2023-11-27T01:52:11.565Z,11.20
2023-11-27T01:54:41.519Z,10.30
2023-11-27T01:57:17.133Z,11.00
2023-11-27T01:59:47.621Z,11.00
2023-11-27T02:05:22.998Z,10.50
2023-11-27T02:07:49.851Z,9.90
2023-11-27T02:10:17.145Z,9.20
2023-11-27T02:12:43.866Z,11.00
2023-11-27T02:15:11.050Z,10.80
2023-11-27T02:17:37.580Z,10.40
2023-11-27T02:20:05.783Z,9.80
2023-11-27T02:22:32.465Z,10.30
2023-11-27T02:24:59.023Z,10.80
2023-11-27T02:27:25.647Z,10.90
2023-11-27T02:29:52.058Z,9.90
2023-11-27T02:32:19.087Z,10.60
2023-11-27T02:34:49.597Z,10.80
2023-11-27T02:37:17.033Z,10.60
2023-11-27T02:39:46.388Z,10.70
2023-11-27T02:42:13.359Z,10.50
2023-11-27T02:44:39.958Z,10.60
2023-11-27T02:47:06.652Z,10.70
2023-11-27T02:49:33.154Z,11.40
2023-11-27T02:51:59.923Z,12.40
2023-11-27T02:54:26.430Z,10.70
2023-11-27T02:56:54.296Z,11.40
2023-11-27T02:59:20.876Z,12.20
2023-11-27T03:01:47.986Z,12.70
2023-11-27T03:04:14.841Z,10.40
2023-11-27T03:06:41.356Z,11.70
2023-11-27T03:09:11.262Z,12.10
2023-11-27T03:11:38.677Z,13.20
2023-11-27T03:14:05.232Z,13.60
2023-11-27T03:16:32.465Z,14.30
2023-11-27T03:18:59.132Z,14.90
2023-11-27T03:21:26.136Z,15.10
2023-11-27T03:23:52.703Z,15.10
2023-11-27T03:26:20.544Z,15.00
2023-11-27T03:28:47.098Z,15.50
2023-11-27T03:31:13.791Z,15.20
2023-11-27T03:33:40.409Z,15.50
2023-11-27T03:36:08.503Z,15.20
2023-11-27T03:38:35.213Z,17.40
2023-11-27T03:41:04.410Z,15.40
2023-11-27T03:43:31.272Z,16.10
2023-11-27T03:45:58.044Z,15.60
2023-11-27T03:48:24.673Z,18.00
2023-11-27T03:50:51.485Z,17.50
2023-11-27T03:53:17.965Z,19.80
2023-11-27T03:55:44.401Z,18.10
2023-11-27T03:58:11.823Z,19.20
2023-11-27T04:00:38.389Z,22.50
2023-11-27T04:03:05.089Z,19.10
2023-11-27T04:05:31.499Z,19.30
2023-11-27T04:07:58.038Z,17.50
2023-11-27T04:10:26.091Z,17.60
2023-11-27T04:12:52.915Z,17.00
2023-11-27T04:15:20.893Z,18.00
2023-11-27T04:17:47.689Z,17.40
2023-11-27T04:20:15.614Z,17.70
2023-11-27T04:22:42.137Z,26.50
2023-11-27T04:25:09.022Z,19.00
2023-11-27T04:27:35.597Z,17.80
2023-11-27T04:30:03.788Z,18.70
2023-11-27T04:32:30.291Z,16.60
2023-11-27T04:34:56.765Z,18.20
2023-11-27T04:37:23.353Z,17.10
2023-11-27T04:39:52.381Z,19.50
2023-11-27T04:42:19.881Z,21.70
2023-11-27T04:44:46.314Z,16.50
2023-11-27T04:47:13.003Z,16.90
2023-11-27T04:49:39.604Z,18.10
2023-11-27T04:52:06.560Z,20.90
2023-11-27T04:54:33.034Z,22.90
2023-11-27T04:56:59.541Z,21.50
2023-11-27T04:59:27.012Z,22.30
2023-11-27T05:01:54.075Z,28.40
2023-11-27T05:04:20.603Z,31.60
2023-11-27T05:06:47.416Z,21.10
2023-11-27T05:09:14.517Z,21.00
2023-11-27T05:11:41.237Z,19.00
2023-11-27T05:14:07.768Z,15.70
2023-11-27T05:16:34.513Z,19.50
2023-11-27T05:19:01.038Z,28.80
2023-11-27T05:21:27.425Z,17.40
2023-11-27T05:23:54.178Z,19.10
2023-11-27T05:26:20.417Z,18.80
2023-11-27T05:28:46.723Z,19.20
2023-11-27T05:31:15.711Z,18.10
2023-11-27T05:33:43.071Z,19.00
2023-11-27T05:36:10.382Z,17.90
2023-11-27T05:38:37.127Z,18.00
2023-11-27T05:41:05.510Z,19.20
2023-11-27T05:43:33.269Z,18.40
2023-11-27T05:46:02.086Z,19.70
2023-11-27T05:48:29.747Z,18.50
2023-11-27T05:50:57.580Z,19.30
2023-11-27T05:53:23.954Z,19.90
2023-11-27T05:55:51.189Z,20.20
2023-11-27T05:58:20.151Z,19.30
2023-11-27T06:00:46.687Z,20.20
2023-11-27T06:03:14.874Z,22.20
2023-11-27T06:05:42.821Z,20.90
2023-11-27T06:08:09.823Z,21.70
2023-11-27T06:10:36.370Z,20.60
2023-11-27T06:13:03.135Z,21.00
2023-11-27T06:15:29.778Z,20.80
2023-11-27T06:17:57.919Z,21.60
2023-11-27T06:20:24.433Z,21.00
2023-11-27T06:22:52.600Z,21.60
2023-11-27T06:25:19.152Z,20.50
2023-11-27T06:27:45.679Z,20.50
2023-11-27T06:30:13.744Z,20.50
2023-11-27T06:32:40.454Z,20.70
2023-11-27T06:35:08.881Z,19.80
2023-11-27T06:37:35.308Z,19.60
2023-11-27T06:40:02.095Z,19.00
2023-11-27T06:42:28.765Z,21.40
2023-11-27T06:44:55.272Z,20.90
2023-11-27T06:47:21.719Z,20.20
2023-11-27T06:49:48.267Z,21.00
2023-11-27T06:52:14.904Z,21.80
2023-11-27T06:54:41.529Z,22.10
2023-11-27T06:57:09.392Z,22.50
2023-11-27T06:59:37.695Z,23.60
2023-11-27T07:02:04.691Z,24.80
2023-11-27T07:04:31.363Z,24.90
2023-11-27T07:06:59.091Z,24.80
2023-11-27T07:09:28.348Z,23.20
2023-11-27T07:11:54.712Z,25.70
2023-11-27T07:14:21.360Z,25.90
2023-11-27T07:16:48.477Z,21.90
2023-11-27T07:19:15.035Z,21.40
2023-11-27T07:21:42.389Z,22.50
2023-11-27T07:24:09.005Z,22.20
2023-11-27T07:26:35.640Z,20.80
2023-11-27T07:29:02.266Z,20.00
2023-11-27T07:31:30.919Z,21.60
2023-11-27T07:33:58.664Z,21.60
2023-11-27T07:36:28.008Z,19.50
2023-11-27T07:38:54.986Z,19.20
2023-11-27T07:41:24.677Z,19.30
2023-11-27T07:43:51.381Z,17.60
2023-11-27T07:46:18.369Z,14.90
2023-11-27T07:48:44.815Z,17.10
2023-11-27T07:51:11.472Z,18.30
2023-11-27T07:53:38.081Z,17.60
2023-11-27T07:56:05.024Z,16.20
2023-11-27T07:58:31.989Z,17.40
2023-11-27T08:00:59.237Z,17.70
2023-11-27T08:03:28.062Z,15.50
2023-11-27T08:05:54.552Z,13.50
2023-11-27T08:08:21.531Z,14.50
2023-11-27T08:10:47.920Z,15.10
2023-11-27T08:13:14.585Z,14.30
2023-11-27T08:15:44.189Z,13.40
2023-11-27T08:18:12.648Z,12.80
2023-11-27T08:20:39.847Z,12.40
2023-11-27T08:23:06.324Z,13.60
2023-11-27T08:25:32.957Z,12.20
2023-11-27T08:27:59.521Z,13.20
2023-11-27T08:30:28.446Z,12.80
2023-11-27T08:32:54.911Z,10.90
2023-11-27T08:35:21.331Z,12.90
2023-11-27T08:37:47.862Z,20.20
2023-11-27T08:40:17.793Z,14.10
2023-11-27T08:42:44.627Z,13.10
2023-11-27T08:45:11.922Z,11.70
2023-11-27T08:47:39.770Z,12.40
2023-11-27T08:50:14.724Z,11.80
2023-11-27T08:52:44.022Z,11.90
2023-11-27T08:55:11.410Z,13.40
2023-11-27T08:57:38.555Z,12.90
2023-11-27T09:00:13.038Z,13.10
2023-11-27T09:02:40.013Z,12.60
2023-11-27T09:05:07.505Z,13.20
2023-11-27T09:07:34.639Z,13.50
2023-11-27T09:10:03.691Z,13.20
2023-11-27T09:12:32.209Z,12.90
2023-11-27T09:14:59.405Z,12.50
2023-11-27T09:17:25.907Z,11.50
2023-11-27T09:19:52.779Z,13.60
2023-11-27T09:22:22.268Z,12.30
2023-11-27T09:24:49.332Z,11.20
2023-11-27T09:27:17.048Z,10.90
2023-11-27T09:29:44.283Z,10.00
2023-11-27T09:32:11.254Z,8.80
2023-11-27T09:34:37.802Z,12.00
2023-11-27T09:37:05.548Z,11.90
2023-11-27T09:39:32.595Z,12.70
2023-11-27T09:41:59.900Z,11.10
2023-11-27T09:44:26.725Z,11.90
2023-11-27T09:46:57.663Z,11.80
2023-11-27T09:49:26.489Z,12.30
2023-11-27T09:51:59.980Z,11.30
2023-11-27T09:54:33.637Z,12.20
2023-11-27T09:56:59.929Z,12.40
2023-11-27T09:59:30.793Z,12.30
2023-11-27T10:01:59.804Z,10.50
2023-11-27T10:04:26.577Z,10.40
2023-11-27T10:06:54.024Z,10.50
2023-11-27T10:09:22.955Z,10.10
2023-11-27T10:11:52.113Z,11.20
2023-11-27T10:14:36.450Z,14.60
2023-11-27T10:17:06.402Z,9.50
2023-11-27T10:19:33.486Z,9.80
2023-11-27T10:22:00.227Z,9.70
2023-11-27T10:24:26.994Z,9.10
2023-11-27T10:26:53.581Z,9.60
2023-11-27T10:29:27.317Z,10.00
2023-11-27T10:32:03.817Z,8.60
2023-11-27T10:34:34.398Z,11.60
2023-11-27T10:37:02.329Z,7.80
2023-11-27T10:39:33.360Z,8.30
2023-11-27T10:42:22.760Z,7.90
2023-11-27T10:44:51.501Z,8.90
2023-11-27T10:47:20.412Z,8.60
2023-11-27T10:49:50.604Z,8.10
2023-11-27T10:52:19.464Z,8.70
2023-11-27T10:54:49.637Z,9.90
2023-11-27T10:57:20.561Z,7.90
2023-11-27T10:59:47.863Z,8.80
2023-11-27T11:02:14.865Z,8.10
2023-11-27T11:04:57.429Z,8.20
2023-11-27T11:07:37.026Z,7.80
2023-11-27T11:10:07.730Z,7.40
2023-11-27T11:12:36.655Z,7.90
2023-11-27T11:15:04.194Z,6.30
2023-11-27T11:17:45.833Z,5.80
2023-11-27T11:20:44.174Z,7.10
2023-11-27T11:23:33.666Z,6.00
2023-11-27T11:26:34.013Z,6.50
2023-11-27T11:29:18.934Z,6.90
2023-11-27T11:31:50.032Z,7.40
2023-11-27T11:34:23.988Z,6.40
2023-11-27T11:37:00.999Z,7.80
2023-11-27T11:39:29.259Z,7.10
2023-11-27T11:42:05.328Z,6.10
2023-11-27T11:44:37.054Z,6.20
2023-11-27T11:47:22.613Z,5.10
2023-11-27T11:49:49.076Z,6.80
2023-11-27T11:52:19.606Z,6.50
2023-11-27T11:54:48.675Z,6.40
2023-11-27T11:57:21.954Z,6.70
2023-11-27T11:59:51.549Z,6.40
2023-11-27T12:02:23.943Z,5.80
2023-11-27T12:04:54.954Z,6.00
2023-11-27T12:07:25.398Z,6.60
2023-11-27T12:09:52.556Z,7.20
2023-11-27T12:12:23.091Z,7.40
2023-11-27T12:14:50.520Z,6.40
2023-11-27T12:17:21.398Z,7.20
2023-11-27T12:19:49.157Z,7.80
2023-11-27T12:22:15.905Z,7.00
2023-11-27T12:24:46.376Z,9.00
2023-11-27T12:27:12.976Z,9.60
2023-11-27T12:29:40.436Z,9.80
2023-11-27T12:32:08.710Z,10.00
2023-11-27T12:34:36.817Z,9.40
2023-11-27T12:37:04.848Z,9.90
2023-11-27T12:39:31.914Z,10.00
2023-11-27T12:42:02.304Z,10.10
2023-11-27T12:44:33.455Z,10.70
2023-11-27T12:47:06.752Z,10.90
2023-11-27T12:49:36.738Z,11.80
2023-11-27T12:52:15.269Z,11.60
2023-11-27T12:54:41.904Z,12.40
2023-11-27T12:57:10.165Z,12.10
2023-11-27T12:59:40.882Z,11.50
2023-11-27T13:02:08.248Z,12.40
2023-11-27T13:04:37.855Z,12.80
2023-11-27T13:07:06.867Z,13.40
2023-11-27T13:09:34.102Z,12.70
2023-11-27T13:12:15.746Z,14.70
2023-11-27T13:14:44.188Z,14.60
2023-11-27T13:17:19.856Z,14.70
2023-11-27T13:19:51.345Z,14.60
2023-11-27T13:22:18.558Z,14.40
2023-11-27T13:24:46.302Z,13.70
2023-11-27T13:27:21.545Z,13.70
2023-11-27T13:29:50.994Z,13.80
2023-11-27T13:32:18.816Z,13.90
2023-11-27T13:34:56.245Z,14.70
2023-11-27T13:37:35.682Z,14.00
2023-11-27T13:40:04.348Z,15.30
2023-11-27T13:42:31.360Z,14.20
2023-11-27T13:44:59.583Z,14.80
2023-11-27T13:47:26.562Z,15.30
2023-11-27T13:49:56.335Z,14.80
2023-11-27T13:52:31.141Z,15.40
2023-11-27T13:54:59.349Z,14.90
2023-11-27T13:57:31.898Z,14.00
2023-11-27T13:59:58.690Z,14.60
2023-11-27T14:02:28.581Z,13.40
2023-11-27T14:04:56.106Z,13.50
2023-11-27T14:07:25.471Z,14.30
2023-11-27T14:09:55.282Z,14.30
2023-11-27T14:12:35.733Z,14.00
2023-11-27T14:15:22.374Z,14.70
2023-11-27T14:20:53.583Z,12.20
2023-11-27T14:23:26.539Z,15.40
2023-11-27T14:26:23.150Z,15.20
2023-11-27T14:28:49.937Z,12.70
2023-11-27T14:31:20.662Z,13.70
2023-11-27T14:33:51.200Z,13.70
2023-11-27T14:36:17.770Z,14.50
2023-11-27T14:38:47.001Z,14.30
2023-11-27T14:41:14.064Z,15.00
2023-11-27T14:43:40.824Z,15.30
2023-11-27T14:46:15.603Z,16.80
2023-11-27T14:48:42.783Z,19.10
2023-11-27T14:51:12.483Z,17.90
2023-11-27T14:53:44.432Z,17.70
2023-11-27T14:56:12.357Z,18.30
2023-11-27T14:58:38.998Z,19.30
2023-11-27T15:01:08.925Z,19.90
2023-11-27T15:03:40.050Z,20.00
2023-11-27T15:06:08.585Z,21.40
2023-11-27T15:08:35.104Z,22.50
2023-11-27T15:11:04.065Z,22.20
2023-11-27T15:13:31.286Z,20.60
2023-11-27T15:15:59.422Z,23.30
2023-11-27T15:18:27.409Z,25.70
2023-11-27T15:20:54.397Z,28.30
2023-11-27T15:23:22.477Z,26.20
2023-11-27T15:25:51.982Z,28.40
2023-11-27T15:28:24.163Z,27.30
2023-11-27T15:30:55.470Z,26.30
2023-11-27T15:33:26.294Z,27.10
2023-11-27T15:35:53.545Z,25.40
2023-11-27T15:38:20.674Z,27.00
2023-11-27T15:40:48.554Z,26.30
2023-11-27T15:43:15.482Z,26.00
2023-11-27T15:45:42.139Z,26.40
2023-11-27T15:48:13.252Z,24.50
2023-11-27T15:50:40.165Z,24.60
2023-11-27T15:56:54.630Z,22.40
2023-11-27T15:59:21.634Z,22.70
2023-11-27T16:01:48.743Z,24.90
2023-11-27T16:04:16.011Z,21.50
2023-11-27T16:06:42.814Z,22.10
2023-11-27T16:09:10.616Z,21.20
2023-11-27T16:11:37.108Z,21.60
2023-11-27T16:14:08.869Z,24.60
2023-11-27T16:16:43.262Z,24.30
2023-11-27T16:19:09.750Z,23.50
2023-11-27T16:21:37.818Z,24.10
2023-11-27T16:24:07.224Z,23.80
2023-11-27T16:26:33.936Z,23.20
2023-11-27T16:29:01.244Z,23.80
2023-11-27T16:31:28.106Z,24.60
2023-11-27T16:33:55.144Z,23.60
2023-11-27T16:36:21.680Z,25.80
2023-11-27T16:38:48.318Z,25.40
2023-11-27T16:41:15.880Z,23.70
2023-11-27T16:43:43.393Z,25.20
2023-11-27T16:46:10.686Z,26.50
2023-11-27T16:48:37.493Z,27.00
2023-11-27T16:51:04.517Z,26.20
2023-11-27T16:53:32.259Z,27.10
2023-11-27T16:56:00.530Z,25.40
2023-11-27T16:58:28.198Z,26.40
2023-11-27T17:00:54.804Z,28.90
2023-11-27T17:03:22.065Z,26.50
2023-11-27T17:05:50.297Z,29.60
2023-11-27T17:08:20.011Z,30.30
2023-11-27T17:10:51.234Z,38.50
2023-11-27T17:13:17.726Z,37.20
2023-11-27T17:15:48.027Z,33.10
2023-11-27T17:18:16.411Z,33.80
2023-11-27T17:20:47.179Z,33.50
2023-11-27T17:23:15.566Z,35.20
2023-11-27T17:25:42.946Z,34.90
2023-11-27T17:28:14.355Z,34.30
2023-11-27T17:30:46.014Z,33.60
2023-11-27T17:33:13.329Z,29.60
2023-11-27T17:35:40.227Z,26.50
2023-11-27T17:38:07.165Z,26.20
2023-11-27T17:40:33.824Z,24.70
2023-11-27T17:43:00.409Z,24.40
2023-11-27T17:45:26.824Z,22.20
2023-11-27T17:47:53.652Z,27.20
2023-11-27T17:50:23.444Z,27.80
2023-11-27T17:52:54.504Z,25.20
2023-11-27T17:55:35.784Z,23.90
2023-11-27T17:58:09.325Z,26.10
2023-11-27T18:00:35.709Z,42.20
2023-11-27T18:03:02.209Z,27.60
2023-11-27T18:05:32.376Z,27.00
2023-11-27T18:08:01.843Z,28.00
2023-11-27T18:10:28.711Z,28.00
2023-11-27T18:12:55.184Z,26.50
2023-11-27T18:15:24.721Z,26.30
2023-11-27T18:17:52.684Z,24.60
2023-11-27T18:20:22.698Z,25.80
2023-11-27T18:22:49.390Z,27.40
2023-11-27T18:25:21.622Z,26.80
2023-11-27T18:27:57.899Z,27.50
2023-11-27T18:30:24.702Z,28.20
2023-11-27T18:32:54.496Z,29.20
2023-11-27T18:35:20.819Z,33.90
2023-11-27T18:37:48.130Z,32.20
2023-11-27T18:40:15.727Z,25.80
2023-11-27T18:42:43.309Z,29.30
2023-11-27T18:45:11.698Z,32.10
2023-11-27T18:47:42.741Z,34.60
2023-11-27T18:50:12.332Z,33.10
2023-11-27T18:52:38.840Z,32.20
2023-11-27T18:55:06.513Z,32.40
2023-11-27T18:57:36.186Z,34.30
2023-11-27T19:00:06.440Z,31.20
2023-11-27T19:02:33.501Z,26.40
2023-11-27T19:05:02.069Z,25.90
2023-11-27T19:07:28.789Z,23.50
2023-11-27T19:09:55.810Z,23.60
2023-11-27T19:12:22.172Z,21.90
2023-11-27T19:14:55.132Z,23.60
2023-11-27T19:17:22.241Z,25.90
2023-11-27T19:19:49.494Z,28.40
2023-11-27T19:22:16.761Z,31.70
2023-11-27T19:24:46.308Z,33.20
2023-11-27T19:27:13.062Z,32.90
2023-11-27T19:29:39.656Z,33.30
2023-11-27T19:32:09.974Z,33.50
2023-11-27T19:34:43.323Z,34.30
2023-11-27T19:37:10.563Z,33.60
2023-11-27T19:39:37.281Z,30.40
2023-11-27T19:42:04.471Z,30.00
2023-11-27T19:44:30.950Z,31.00
2023-11-27T19:46:59.940Z,31.70
2023-11-27T19:49:27.287Z,35.60
2023-11-27T19:51:54.659Z,39.10
2023-11-27T19:54:24.748Z,35.70
2023-11-27T19:56:51.474Z,39.40
2023-11-27T19:59:19.440Z,37.00
2023-11-27T20:01:46.324Z,38.50
2023-11-27T20:04:14.310Z,34.20
2023-11-27T20:06:43.601Z,37.00
2023-11-27T20:09:13.008Z,38.90
2023-11-27T20:11:40.007Z,38.30
2023-11-27T20:14:07.805Z,34.40
2023-11-27T20:16:37.989Z,39.90
2023-11-27T20:19:06.727Z,37.10
2023-11-27T20:21:34.252Z,41.90
2023-11-27T20:24:02.259Z,41.20
2023-11-27T20:26:29.244Z,53.50
2023-11-27T20:29:00.241Z,34.60
2023-11-27T20:31:33.992Z,34.80
2023-11-27T20:34:04.244Z,37.40
2023-11-27T20:36:33.287Z,34.20
2023-11-27T20:39:00.851Z,34.00
2023-11-27T20:41:27.578Z,34.80
2023-11-27T20:43:58.464Z,32.10
2023-11-27T20:46:28.031Z,33.70
2023-11-27T20:48:55.181Z,30.00
2023-11-27T20:51:21.790Z,30.80
2023-11-27T20:53:48.325Z,31.10
2023-11-27T20:56:15.536Z,31.10
2023-11-27T20:58:43.009Z,28.80
2023-11-27T21:01:09.722Z,27.30
2023-11-27T21:03:39.549Z,33.20
2023-11-27T21:06:07.379Z,31.40
2023-11-27T21:08:34.943Z,31.50
2023-11-27T21:11:02.648Z,28.90
2023-11-27T21:13:29.100Z,26.40
2023-11-27T21:15:57.640Z,26.70
2023-11-27T21:18:24.323Z,28.70
2023-11-27T21:20:52.115Z,27.20
2023-11-27T21:23:20.584Z,27.60
2023-11-27T21:25:47.769Z,28.30
2023-11-27T21:28:14.598Z,27.50
2023-11-27T21:30:41.290Z,27.80
2023-11-27T21:33:08.195Z,26.70
2023-11-27T21:35:34.941Z,32.10
2023-11-27T21:38:01.303Z,28.20
2023-11-27T21:40:37.163Z,28.40
2023-11-27T21:43:03.798Z,27.90
2023-11-27T21:45:31.255Z,27.20
2023-11-27T21:47:58.268Z,27.40
2023-11-27T21:50:27.430Z,28.20
2023-11-27T21:52:54.097Z,23.90
2023-11-27T21:55:20.780Z,24.70
2023-11-27T21:57:47.524Z,28.80
2023-11-27T22:00:14.416Z,30.40
2023-11-27T22:02:42.113Z,24.50
2023-11-27T22:05:10.305Z,26.60
2023-11-27T22:07:37.775Z,24.30
2023-11-27T22:10:05.288Z,24.50
2023-11-27T22:12:32.512Z,27.10
2023-11-27T22:14:59.803Z,24.30
2023-11-27T22:17:28.394Z,23.00
2023-11-27T22:19:54.938Z,22.60
2023-11-27T22:22:21.636Z,24.70
2023-11-27T22:24:48.121Z,21.90
2023-11-27T22:27:14.988Z,22.70
2023-11-27T22:29:43.128Z,19.70
2023-11-27T22:32:09.617Z,21.80
2023-11-27T22:34:36.243Z,24.10
2023-11-27T22:37:02.814Z,23.10
2023-11-27T22:39:29.330Z,24.50
2023-11-27T22:41:55.810Z,23.30
2023-11-27T22:44:22.094Z,24.70
2023-11-27T22:46:48.576Z,25.40
2023-11-27T22:49:15.057Z,24.80
2023-11-27T22:51:41.628Z,25.00
2023-11-27T22:54:08.061Z,26.70
2023-11-27T22:56:34.549Z,26.40
2023-11-27T22:59:11.267Z,26.20
2023-11-27T23:01:43.394Z,27.00
2023-11-27T23:04:10.437Z,24.90
2023-11-27T23:06:38.563Z,27.50
2023-11-27T23:09:08.359Z,24.70
2023-11-27T23:11:34.928Z,27.20
2023-11-27T23:14:01.811Z,25.60
2023-11-27T23:16:28.399Z,25.40
2023-11-27T23:18:54.908Z,26.90
2023-11-27T23:21:23.074Z,27.30
2023-11-27T23:23:49.658Z,25.30
2023-11-27T23:26:16.978Z,26.50
2023-11-27T23:28:44.388Z,25.40
2023-11-27T23:31:11.294Z,27.70
2023-11-27T23:33:37.973Z,26.30
2023-11-27T23:36:06.925Z,25.90
2023-11-27T23:38:34.330Z,25.10
2023-11-27T23:41:02.094Z,22.80
2023-11-27T23:43:28.992Z,27.70
2023-11-27T23:45:55.477Z,26.50
2023-11-27T23:48:23.234Z,24.10
2023-11-27T23:50:50.461Z,25.60
2023-11-27T23:53:17.010Z,23.90
2023-11-27T23:55:43.493Z,25.40
2023-11-27T23:58:10.915Z,25.40
